Terminal Aerodrome Forecast
Issued by NWS Cleveland, OH

Home | Current Version | Previous Version | Graphics & Text | Print | Product List | Glossary On
Versions: 1 2 3 4 5 6 7 8 9 10 11 12 13 14 15 16 17
000
FTUS41 KCLE 201120
TAFYNG
TAF
KYNG 201120Z 2012/2112 VRB03KT P6SM SCT200
     FM201500 25009KT P6SM SCT040 BKN200
     FM201900 24009KT P6SM VCTS SCT045CB BKN150
     FM202300 25008KT P6SM -SHRA VCTS SCT045CB OVC090
     FM210200 25005KT P6SM BKN070
     FM210800 27005KT 4SM BR SCT060=

USA.gov is the U.S. government's official web portal to all federal, state and local government web resources and services.